EFHK Airport Information

Runway Information
Runway 04R Length 11286 ft width 197 ft
Elevation 150 ft Threshold 787 ft Heading 48
Runway 22L Length 11286 ft Width 197 ft
Elevation 147 ft Threshold ft Heading 228
Runway 04L Length 10039 ft width 197 ft
Elevation 133 ft Threshold ft Heading 48
Runway 22R Length 10039 ft Width 197 ft
Elevation 178 ft Threshold 196 ft Heading 228
Runway 15 Length 9518 ft width 197 ft
Elevation 162 ft Threshold ft Heading 154
Runway 33 Length 9518 ft Width 197 ft
Elevation 146 ft Threshold ft Heading 334
Airport Frequencies
Type APP Name APP Frequency 119.1 MHZ
Type APP Name Frequency 129.85 MHZ
Type ATIS Name HEL VOR Frequency 114.2 MHZ
Type ATIS Name Frequency 135.075 MHZ
Type DEL Name Frequency 118.125 MHZ
Type GND Name GND Frequency 121.8 MHZ
Type PMSV Name PMSV METRO Frequency 125.1 MHZ
Type RMP Name RMP Frequency 121.65 MHZ
Type TWR Name 22L/04R an Frequency 118.6 MHZ
Type TWR Name 22R/04L Frequency 118.85 MHZ
Airport Navaids
Type NDB Name Espoo Frequency 381 KHZ
Type VOR-DME Name Helsinki Frequency 114200 KHZ
Type NDB Name Korso Frequency 322 KHZ
Airport Weather Information & NOTAM
ADDS - METARS form results

(2017 UTC 10 August 2022)
Data provider http://aviationweather.gov/metar/data/
 
METAR text: EFHK 101950Z 20008KT CAVOK 18/15 Q1023 NOSIG
Conditions at: EFHK (HELSINKI/VANTAA , FI) observed 1950 UTC 10 August 2022
Temperature: 18.0°C (64°F)
Dewpoint: 15.0°C (59°F) [RH = 83%]
Pressure (altimeter): 30.21 inches Hg (1023.0 mb)
Winds: from the SSW (200 degrees) at 9 MPH (8 knots; 4.1 m/s)
Visibility: 6 or more miles (10+ km)
Ceiling: ceiling and visibility are OK
Clouds: unknown
Weather: no significant weather observed at this time

METAR text: EFHK 101920Z 21007KT CAVOK 18/15 Q1023 NOSIG
Conditions at: EFHK (HELSINKI/VANTAA , FI) observed 1920 UTC 10 August 2022
Temperature: 18.0°C (64°F)
Dewpoint: 15.0°C (59°F) [RH = 83%]
Pressure (altimeter): 30.21 inches Hg (1023.0 mb)
Winds: from the SSW (210 degrees) at 8 MPH (7 knots; 3.6 m/s)
Visibility: 6 or more miles (10+ km)
Ceiling: ceiling and visibility are OK
Clouds: unknown
Weather: no significant weather observed at this time

Forecast for: EFHK (HELSINKI/VANTAA , FI)
Text: TAF EFHK 101725Z 1018/1118 21012KT CAVOK
Forecast period: 1800 UTC 10 August 2022 to 1800 UTC 11 August 2022
Forecast type: FROM: standard forecast or significant change
Winds: from the SSW (210 degrees) at 14 MPH (12 knots; 6.2 m/s)
Visibility: 6 or more miles (10+ km)
Ceiling: unknown
Clouds: missing
Weather: NSW  (no significant weather)
Text: PROB30
Forecast period: 0000 to 0400 UTC 11 August 2022
Forecast type: TEMPORARY: The following changes expected for less than half the time period
Visibility: 1.24 miles (2.00 km)
Ceiling: unknown
Clouds: missing
Weather: MIFG  (shallow fog)